createdAt,value
2024-02-17T00:00:14.259Z,76.30
2024-02-17T00:02:41.865Z,72.88
2024-02-17T00:05:10.143Z,72.47
2024-02-17T00:07:37.697Z,69.83
2024-02-17T00:10:06.180Z,67.50
2024-02-17T00:12:33.917Z,68.50
2024-02-17T00:15:02.268Z,62.85
2024-02-17T00:17:30.419Z,60.27
2024-02-17T00:19:58.502Z,59.28
2024-02-17T00:22:26.421Z,63.23
2024-02-17T00:24:53.894Z,54.33
2024-02-17T00:27:21.532Z,49.83
2024-02-17T00:29:49.352Z,50.58
2024-02-17T00:32:16.808Z,45.17
2024-02-17T00:34:44.756Z,42.33
2024-02-17T00:37:12.348Z,47.22
2024-02-17T00:39:40.169Z,52.35
2024-02-17T00:42:08.492Z,53.30
2024-02-17T00:44:36.290Z,49.08
2024-02-17T00:47:04.348Z,47.13
2024-02-17T00:49:32.227Z,45.38
2024-02-17T00:51:59.964Z,43.65
2024-02-17T00:54:27.561Z,42.92
2024-02-17T00:56:55.577Z,61.88
2024-02-17T00:59:23.039Z,50.10
2024-02-17T01:01:51.126Z,45.55
2024-02-17T01:04:18.901Z,39.35
2024-02-17T01:06:46.912Z,38.63
2024-02-17T01:09:16.705Z,36.80
2024-02-17T01:11:44.703Z,35.70
2024-02-17T01:14:12.439Z,34.60
2024-02-17T01:16:41.751Z,35.85
2024-02-17T01:19:09.487Z,36.72
2024-02-17T01:21:37.125Z,39.63
2024-02-17T01:24:05.676Z,40.42
2024-02-17T01:26:33.362Z,36.60
2024-02-17T01:29:00.864Z,40.25
2024-02-17T01:31:29.712Z,63.33
2024-02-17T01:33:57.225Z,63.63
2024-02-17T01:36:25.852Z,75.45
2024-02-17T01:38:53.572Z,76.07
2024-02-17T01:41:21.146Z,73.00
2024-02-17T01:43:48.897Z,82.40
2024-02-17T01:46:16.956Z,74.63
2024-02-17T01:48:44.825Z,74.70
2024-02-17T01:51:13.218Z,67.40
2024-02-17T01:53:42.313Z,74.30
2024-02-17T01:56:11.599Z,67.47
2024-02-17T01:58:39.422Z,68.07
2024-02-17T02:01:07.230Z,71.93
2024-02-17T02:03:37.220Z,76.83
2024-02-17T02:06:05.364Z,73.73
2024-02-17T02:08:33.722Z,74.60
2024-02-17T02:11:02.159Z,81.23
2024-02-17T02:13:29.953Z,76.77
2024-02-17T02:15:58.016Z,100.20
2024-02-17T02:18:25.946Z,92.70
2024-02-17T02:20:56.707Z,98.40
2024-02-17T02:23:24.838Z,115.17
2024-02-17T02:25:56.154Z,110.70
2024-02-17T02:28:24.602Z,106.63
2024-02-17T02:30:53.420Z,104.57
2024-02-17T02:33:21.598Z,90.83
2024-02-17T02:35:49.567Z,92.30
2024-02-17T02:38:17.671Z,88.07
2024-02-17T02:40:45.866Z,77.17
2024-02-17T02:43:13.332Z,83.03
2024-02-17T02:45:41.101Z,87.37
2024-02-17T02:48:08.982Z,85.13
2024-02-17T02:50:36.615Z,84.57
2024-02-17T02:53:04.265Z,88.27
2024-02-17T02:55:32.041Z,95.37
2024-02-17T02:57:59.825Z,92.37
2024-02-17T03:00:27.889Z,94.70
2024-02-17T03:02:57.033Z,86.17
2024-02-17T03:05:25.507Z,76.60
2024-02-17T03:07:53.054Z,73.67
2024-02-17T03:10:20.736Z,80.80
2024-02-17T03:12:48.729Z,58.90
2024-02-17T03:15:17.149Z,61.47
2024-02-17T03:17:45.051Z,56.50
2024-02-17T03:20:13.255Z,55.20
2024-02-17T03:22:40.885Z,54.87
2024-02-17T03:25:08.657Z,53.77
2024-02-17T03:27:36.412Z,47.20
2024-02-17T03:30:07.724Z,47.40
2024-02-17T03:32:35.705Z,42.43
2024-02-17T03:35:05.289Z,39.60
2024-02-17T03:37:33.329Z,43.80
2024-02-17T03:40:01.155Z,45.50
2024-02-17T03:42:28.826Z,38.63
2024-02-17T03:44:56.425Z,44.53
2024-02-17T03:47:24.208Z,46.13
2024-02-17T03:49:51.941Z,50.50
2024-02-17T03:52:19.663Z,54.47
2024-02-17T03:54:47.181Z,57.90
2024-02-17T03:57:17.202Z,52.73
2024-02-17T03:59:45.277Z,51.80
2024-02-17T04:02:12.733Z,61.37
2024-02-17T04:04:41.804Z,59.37
2024-02-17T04:07:09.380Z,58.87
2024-02-17T04:09:37.323Z,63.17
2024-02-17T04:12:05.478Z,59.43
2024-02-17T04:14:32.945Z,65.50
2024-02-17T04:17:00.757Z,67.27
2024-02-17T04:19:28.434Z,62.17
2024-02-17T04:21:56.350Z,68.70
2024-02-17T04:24:24.390Z,77.00
2024-02-17T04:26:52.178Z,81.27
2024-02-17T04:29:21.316Z,83.93
2024-02-17T04:31:49.133Z,95.83
2024-02-17T04:34:17.055Z,107.63
2024-02-17T04:36:44.730Z,118.60
2024-02-17T04:39:14.682Z,124.03
2024-02-17T04:41:42.502Z,114.10
2024-02-17T04:44:10.305Z,114.50
2024-02-17T04:46:38.206Z,116.00
2024-02-17T04:49:05.719Z,122.67
2024-02-17T04:51:35.132Z,116.40
2024-02-17T04:54:04.668Z,112.50
2024-02-17T04:56:32.406Z,112.43
2024-02-17T04:59:00.272Z,107.07
2024-02-17T05:01:27.991Z,107.13
2024-02-17T05:03:55.813Z,101.40
2024-02-17T05:06:23.956Z,100.27
2024-02-17T05:08:52.034Z,94.40
2024-02-17T05:11:19.758Z,94.87
2024-02-17T05:13:47.488Z,88.07
2024-02-17T05:16:15.194Z,75.20
2024-02-17T05:18:43.020Z,76.40
2024-02-17T05:21:11.785Z,73.60
2024-02-17T05:23:39.381Z,78.73
2024-02-17T05:26:07.064Z,87.47
2024-02-17T05:28:34.715Z,92.30
2024-02-17T05:31:02.542Z,89.17
2024-02-17T05:33:30.376Z,78.37
2024-02-17T05:35:58.304Z,81.53
2024-02-17T05:38:26.017Z,70.73
2024-02-17T05:40:53.522Z,63.23
2024-02-17T05:43:21.076Z,64.97
2024-02-17T05:45:49.436Z,64.03
2024-02-17T05:48:17.686Z,65.20
2024-02-17T05:50:46.057Z,67.43
2024-02-17T05:53:13.772Z,63.33
2024-02-17T05:55:41.225Z,63.00
2024-02-17T05:58:08.751Z,58.37
2024-02-17T06:00:36.638Z,54.53
2024-02-17T06:03:04.862Z,55.80
2024-02-17T06:05:34.244Z,56.23
2024-02-17T06:08:02.073Z,51.47
2024-02-17T06:10:29.673Z,54.20
2024-02-17T06:12:57.722Z,55.67
2024-02-17T06:15:25.833Z,52.27
2024-02-17T06:18:12.284Z,53.67
2024-02-17T06:21:01.967Z,49.50
2024-02-17T06:23:29.650Z,56.17
2024-02-17T06:25:57.222Z,54.92
2024-02-17T06:28:24.905Z,60.53
2024-02-17T06:30:52.562Z,50.22
2024-02-17T06:33:21.874Z,48.70
2024-02-17T06:35:49.736Z,54.07
2024-02-17T06:38:17.546Z,48.93
2024-02-17T06:40:45.182Z,52.00
2024-02-17T06:43:12.815Z,49.88
2024-02-17T06:45:40.621Z,54.25
2024-02-17T06:48:08.698Z,46.43
2024-02-17T06:50:36.144Z,48.35
2024-02-17T06:53:03.603Z,49.53
2024-02-17T06:55:31.255Z,49.33
2024-02-17T06:57:58.785Z,50.72
2024-02-17T07:00:26.348Z,47.17
2024-02-17T07:02:54.124Z,48.13
2024-02-17T07:05:22.089Z,41.28
2024-02-17T07:07:49.713Z,46.50
2024-02-17T07:10:17.614Z,45.90
2024-02-17T07:12:45.348Z,48.05
2024-02-17T07:15:13.340Z,45.10
2024-02-17T07:17:41.237Z,42.17
2024-02-17T07:20:09.683Z,42.53
2024-02-17T07:22:37.660Z,43.35
2024-02-17T07:25:06.409Z,45.22
2024-02-17T07:27:34.044Z,45.95
2024-02-17T07:30:01.746Z,45.55
2024-02-17T07:32:30.962Z,46.42
2024-02-17T07:34:58.797Z,46.55
2024-02-17T07:37:26.401Z,47.38
2024-02-17T07:39:54.149Z,43.60
2024-02-17T07:42:21.990Z,46.00
2024-02-17T07:44:49.486Z,39.70
2024-02-17T07:47:17.567Z,44.55
2024-02-17T07:49:45.356Z,42.40
2024-02-17T07:52:13.450Z,43.33
2024-02-17T07:54:41.191Z,41.28
2024-02-17T07:57:09.630Z,39.88
2024-02-17T07:59:37.449Z,38.63
2024-02-17T08:02:05.327Z,42.08
2024-02-17T08:04:33.339Z,39.00
2024-02-17T08:07:01.608Z,43.55
2024-02-17T08:09:29.841Z,38.28
2024-02-17T08:11:57.809Z,36.53
2024-02-17T08:14:28.104Z,36.13
2024-02-17T08:16:57.331Z,37.72
2024-02-17T08:19:24.980Z,38.00
2024-02-17T08:21:52.624Z,38.22
2024-02-17T08:24:20.222Z,40.88
2024-02-17T08:26:48.210Z,38.83
2024-02-17T08:29:15.753Z,42.75
2024-02-17T08:31:52.082Z,43.47
2024-02-17T08:34:20.912Z,45.40
2024-02-17T08:36:48.944Z,45.50
2024-02-17T08:39:17.010Z,51.08
2024-02-17T08:41:45.680Z,48.13
2024-02-17T08:44:14.626Z,47.55
2024-02-17T08:46:42.668Z,52.33
2024-02-17T08:49:10.817Z,48.00
2024-02-17T08:51:38.733Z,48.15
2024-02-17T08:54:11.146Z,51.50
2024-02-17T08:56:39.527Z,53.42
2024-02-17T08:59:07.102Z,56.50
2024-02-17T09:01:35.244Z,52.08
2024-02-17T09:04:03.343Z,55.13
2024-02-17T09:06:31.111Z,55.22
2024-02-17T09:08:58.777Z,54.10
2024-02-17T09:11:26.462Z,50.22
2024-02-17T09:13:54.219Z,47.42
2024-02-17T09:16:25.391Z,49.45
2024-02-17T09:18:52.992Z,43.15
2024-02-17T09:21:20.969Z,42.30
2024-02-17T09:23:49.412Z,40.53
2024-02-17T09:26:17.537Z,38.13
2024-02-17T09:28:45.528Z,36.58
2024-02-17T09:31:13.564Z,33.33
2024-02-17T09:33:41.244Z,34.90
2024-02-17T09:36:09.863Z,32.55
2024-02-17T09:38:37.556Z,32.50
2024-02-17T09:41:05.540Z,34.50
2024-02-17T09:43:33.161Z,33.10
2024-02-17T09:46:01.133Z,33.85
2024-02-17T09:48:30.937Z,34.92
2024-02-17T09:50:59.192Z,34.42
2024-02-17T09:53:28.017Z,36.03
2024-02-17T09:55:56.258Z,35.85
2024-02-17T09:58:24.217Z,38.67
2024-02-17T10:00:52.209Z,36.80
2024-02-17T10:03:22.479Z,33.28
2024-02-17T10:05:51.729Z,35.60
2024-02-17T10:08:19.328Z,35.85
2024-02-17T10:10:47.105Z,34.60
2024-02-17T10:13:22.150Z,35.40
2024-02-17T10:15:49.832Z,36.42
2024-02-17T10:18:22.297Z,33.95
2024-02-17T10:20:55.840Z,33.75
2024-02-17T10:23:24.111Z,38.63
2024-02-17T10:25:52.118Z,35.20
2024-02-17T10:28:19.597Z,40.33
2024-02-17T10:30:47.627Z,37.25
2024-02-17T10:33:16.927Z,38.20
2024-02-17T10:35:47.750Z,35.65
2024-02-17T10:38:15.729Z,40.53
2024-02-17T10:40:43.606Z,38.67
2024-02-17T10:43:11.312Z,40.92
2024-02-17T10:45:39.041Z,43.40
2024-02-17T10:48:09.507Z,39.90
2024-02-17T10:50:40.166Z,46.28
2024-02-17T10:53:26.111Z,45.17
2024-02-17T10:55:55.431Z,45.05
2024-02-17T10:58:23.403Z,46.30
2024-02-17T11:00:51.469Z,44.67
2024-02-17T11:03:30.404Z,42.15
2024-02-17T11:05:59.589Z,44.92
2024-02-17T11:08:27.219Z,43.58
2024-02-17T11:10:54.832Z,44.90
2024-02-17T11:13:23.653Z,49.05
2024-02-17T11:16:09.007Z,48.88
2024-02-17T11:18:42.839Z,54.03
2024-02-17T11:21:12.269Z,47.65
2024-02-17T11:23:41.159Z,46.38
2024-02-17T11:26:28.616Z,44.95
2024-02-17T11:29:04.685Z,46.20
2024-02-17T11:31:32.668Z,48.55
2024-02-17T11:34:04.573Z,51.72
2024-02-17T11:36:34.418Z,50.40
2024-02-17T11:39:02.537Z,48.08
2024-02-17T11:41:30.478Z,50.10
2024-02-17T11:43:58.777Z,45.95
2024-02-17T11:46:26.937Z,47.28
2024-02-17T11:48:54.988Z,48.70
2024-02-17T11:51:26.925Z,48.10
2024-02-17T11:53:57.884Z,49.80
2024-02-17T11:56:25.991Z,47.40
2024-02-17T11:58:57.208Z,50.45
2024-02-17T12:01:25.684Z,49.78
2024-02-17T12:03:53.516Z,45.58
2024-02-17T12:06:21.602Z,50.35
2024-02-17T12:08:49.370Z,48.33
2024-02-17T12:11:18.982Z,51.70
2024-02-17T12:13:47.581Z,47.08
2024-02-17T12:16:15.338Z,48.72
2024-02-17T12:18:43.755Z,48.33
2024-02-17T12:21:12.513Z,50.00
2024-02-17T12:23:42.164Z,57.35
2024-02-17T12:26:17.067Z,54.03
2024-02-17T12:28:52.801Z,51.08
2024-02-17T12:31:21.365Z,55.35
2024-02-17T12:33:51.472Z,53.45
2024-02-17T12:36:23.184Z,53.92
2024-02-17T12:38:58.116Z,53.55
2024-02-17T12:41:26.891Z,51.08
2024-02-17T12:43:56.534Z,53.05
2024-02-17T12:46:28.064Z,53.70
2024-02-17T12:48:57.225Z,56.55
2024-02-17T12:51:25.550Z,56.85
2024-02-17T12:53:54.275Z,55.03
2024-02-17T12:56:25.437Z,56.45
2024-02-17T12:58:54.097Z,55.08
2024-02-17T13:01:22.132Z,61.72
2024-02-17T13:03:50.963Z,57.38
2024-02-17T13:06:19.371Z,58.53
2024-02-17T13:08:49.441Z,57.22
2024-02-17T13:11:19.020Z,56.10
2024-02-17T13:13:46.960Z,53.17
2024-02-17T13:16:14.835Z,52.35
2024-02-17T13:18:42.869Z,53.25
2024-02-17T13:21:11.368Z,58.35
2024-02-17T13:23:39.506Z,56.72
2024-02-17T13:26:06.996Z,56.70
2024-02-17T13:28:34.647Z,52.92
2024-02-17T13:31:02.395Z,56.63
2024-02-17T13:33:30.589Z,55.92
2024-02-17T13:35:58.577Z,60.88
2024-02-17T13:38:30.631Z,56.28
2024-02-17T13:40:59.269Z,51.60
2024-02-17T13:43:27.178Z,50.45
2024-02-17T13:45:54.958Z,51.88
2024-02-17T13:48:22.691Z,49.03
2024-02-17T13:50:53.666Z,54.50
2024-02-17T13:53:21.721Z,48.60
2024-02-17T13:55:49.345Z,52.83
2024-02-17T13:58:16.878Z,48.40
2024-02-17T14:00:44.719Z,51.50
2024-02-17T14:03:13.527Z,48.85
2024-02-17T14:05:41.314Z,50.08
2024-02-17T14:08:09.245Z,59.05
2024-02-17T14:10:36.927Z,57.75
2024-02-17T14:13:04.907Z,58.10
2024-02-17T14:15:33.058Z,61.58
2024-02-17T14:18:00.704Z,58.90
2024-02-17T14:20:28.752Z,65.85
2024-02-17T14:22:56.637Z,61.30
2024-02-17T14:25:24.823Z,61.25
2024-02-17T14:27:52.684Z,63.97
2024-02-17T14:30:24.247Z,67.43
2024-02-17T14:32:52.409Z,68.70
2024-02-17T14:35:20.333Z,67.30
2024-02-17T14:37:49.635Z,70.30
2024-02-17T14:40:17.973Z,74.82
2024-02-17T14:42:46.988Z,71.07
2024-02-17T14:45:16.175Z,68.95
2024-02-17T14:47:44.322Z,76.15
2024-02-17T14:50:12.703Z,72.53
2024-02-17T14:52:40.574Z,71.57
2024-02-17T14:55:08.863Z,75.03
2024-02-17T14:57:36.904Z,75.45
2024-02-17T15:00:04.925Z,74.85
2024-02-17T15:02:32.575Z,73.78
2024-02-17T15:05:00.382Z,74.15
2024-02-17T15:07:28.194Z,71.65
2024-02-17T15:09:56.459Z,72.95
2024-02-17T15:12:27.246Z,75.57
2024-02-17T15:14:57.493Z,76.40
2024-02-17T15:17:31.183Z,77.18
2024-02-17T15:19:59.780Z,74.47
2024-02-17T15:22:27.542Z,77.18
2024-02-17T15:24:55.203Z,79.00
2024-02-17T15:27:23.094Z,86.90
2024-02-17T15:29:50.677Z,80.57
2024-02-17T15:32:18.640Z,85.97
2024-02-17T15:34:46.386Z,84.85
2024-02-17T15:37:15.023Z,82.07
2024-02-17T15:39:43.859Z,82.95
2024-02-17T15:42:11.666Z,82.85
2024-02-17T15:44:40.909Z,82.85
2024-02-17T15:47:09.364Z,85.32
2024-02-17T15:49:37.290Z,87.47
2024-02-17T15:52:06.426Z,85.80
2024-02-17T15:54:34.213Z,88.00
2024-02-17T15:57:01.802Z,85.97
2024-02-17T15:59:29.525Z,85.70
2024-02-17T16:01:57.399Z,88.10
2024-02-17T16:04:25.195Z,87.22
2024-02-17T16:06:52.870Z,83.60
2024-02-17T16:09:22.844Z,90.85
2024-02-17T16:11:50.518Z,84.68
2024-02-17T16:14:18.197Z,93.60
2024-02-17T16:16:45.887Z,88.07
2024-02-17T16:19:13.729Z,89.78
2024-02-17T16:21:41.510Z,87.82
2024-02-17T16:24:09.419Z,91.07
2024-02-17T16:26:40.694Z,95.18
2024-02-17T16:29:08.845Z,85.38
2024-02-17T16:31:36.483Z,89.00
2024-02-17T16:34:06.949Z,86.97
2024-02-17T16:36:34.746Z,90.10
2024-02-17T16:39:08.609Z,86.78
2024-02-17T16:41:38.484Z,88.47
2024-02-17T16:44:06.783Z,89.30
2024-02-17T16:46:35.185Z,88.70
2024-02-17T16:49:03.262Z,90.35
2024-02-17T16:51:34.711Z,85.90
2024-02-17T16:54:03.097Z,91.88
2024-02-17T16:56:30.790Z,95.57
2024-02-17T16:58:58.345Z,89.88
2024-02-17T17:01:26.173Z,87.05
2024-02-17T17:03:53.979Z,88.45
2024-02-17T17:06:22.025Z,91.35
2024-02-17T17:08:50.473Z,88.72
2024-02-17T17:11:22.461Z,91.68
2024-02-17T17:13:54.335Z,87.32
2024-02-17T17:16:22.114Z,92.40
2024-02-17T17:18:50.678Z,88.10
2024-02-17T17:21:19.070Z,93.65
2024-02-17T17:23:46.721Z,90.88
2024-02-17T17:26:14.501Z,86.38
2024-02-17T17:28:43.552Z,92.45
2024-02-17T17:31:11.280Z,94.97
2024-02-17T17:33:40.386Z,93.15
2024-02-17T17:36:08.501Z,91.57
2024-02-17T17:38:36.602Z,91.82
2024-02-17T17:41:04.181Z,90.32
2024-02-17T17:43:38.130Z,91.43
2024-02-17T17:46:12.346Z,89.53
2024-02-17T17:48:40.212Z,95.47
2024-02-17T17:51:07.993Z,97.10
2024-02-17T17:53:35.738Z,97.75
2024-02-17T17:56:04.487Z,95.40
2024-02-17T17:58:32.169Z,90.45
2024-02-17T18:00:59.800Z,85.68
2024-02-17T18:03:32.028Z,86.53
2024-02-17T18:06:00.091Z,88.93
2024-02-17T18:08:28.519Z,90.32
2024-02-17T18:10:56.372Z,85.28
2024-02-17T18:13:24.606Z,87.15
2024-02-17T18:15:52.213Z,87.78
2024-02-17T18:18:20.361Z,85.32
2024-02-17T18:20:48.345Z,88.85
2024-02-17T18:23:21.848Z,89.53
2024-02-17T18:25:49.653Z,85.00
2024-02-17T18:28:17.634Z,90.95
2024-02-17T18:30:48.175Z,85.75
2024-02-17T18:33:16.580Z,91.18
2024-02-17T18:35:45.556Z,82.45
2024-02-17T18:38:13.415Z,79.60
2024-02-17T18:40:40.986Z,77.20
2024-02-17T18:43:08.836Z,79.47
2024-02-17T18:45:36.790Z,73.97
2024-02-17T18:48:04.744Z,79.43
2024-02-17T18:50:32.660Z,74.63
2024-02-17T18:53:00.227Z,80.53
2024-02-17T18:55:28.168Z,78.03
2024-02-17T18:57:58.962Z,74.25
2024-02-17T19:00:26.744Z,76.35
2024-02-17T19:02:54.399Z,76.47
2024-02-17T19:05:21.940Z,77.97
2024-02-17T19:07:49.988Z,81.18
2024-02-17T19:10:21.517Z,81.53
2024-02-17T19:12:49.888Z,83.43
2024-02-17T19:15:17.779Z,82.00
2024-02-17T19:17:45.538Z,68.93
2024-02-17T19:20:14.166Z,74.43
2024-02-17T19:22:41.948Z,70.05
2024-02-17T19:25:10.964Z,57.78
2024-02-17T19:27:38.623Z,56.65
2024-02-17T19:30:07.177Z,51.42
2024-02-17T19:32:34.802Z,54.90
2024-02-17T19:35:02.785Z,50.85
2024-02-17T19:37:30.371Z,45.05
2024-02-17T19:39:58.187Z,50.92
2024-02-17T19:42:25.885Z,54.55
2024-02-17T19:44:53.747Z,54.08
2024-02-17T19:47:22.005Z,53.42
2024-02-17T19:49:50.467Z,56.03
2024-02-17T19:52:18.383Z,54.10
2024-02-17T19:54:48.741Z,56.47
2024-02-17T19:57:19.721Z,54.45
2024-02-17T19:59:48.593Z,59.45
2024-02-17T20:02:16.133Z,55.38
2024-02-17T20:04:44.212Z,58.25
2024-02-17T20:07:11.751Z,59.58
2024-02-17T20:09:39.702Z,60.97
2024-02-17T20:12:08.609Z,62.63
2024-02-17T20:14:36.349Z,64.20
2024-02-17T20:17:05.304Z,58.10
2024-02-17T20:19:33.021Z,60.83
2024-02-17T20:22:00.642Z,60.40
2024-02-17T20:24:28.327Z,62.80
2024-02-17T20:26:55.944Z,60.90
2024-02-17T20:29:23.616Z,58.58
2024-02-17T20:31:51.991Z,57.90
2024-02-17T20:34:19.939Z,60.15
2024-02-17T20:36:47.633Z,65.28
2024-02-17T20:39:16.052Z,61.30
2024-02-17T20:41:48.341Z,60.35
2024-02-17T20:44:16.101Z,60.92
2024-02-17T20:46:44.116Z,55.25
2024-02-17T20:49:12.717Z,61.17
2024-02-17T20:51:41.306Z,60.92
2024-02-17T20:54:08.975Z,63.30
2024-02-17T20:56:37.123Z,61.85
2024-02-17T20:59:13.520Z,63.10
2024-02-17T21:01:48.847Z,64.32
2024-02-17T21:04:17.015Z,62.72
2024-02-17T21:06:45.300Z,73.30
2024-02-17T21:09:15.614Z,76.25
2024-02-17T21:11:45.738Z,77.25
2024-02-17T21:14:14.756Z,77.82
2024-02-17T21:16:45.898Z,81.53
2024-02-17T21:19:13.770Z,79.22
2024-02-17T21:21:41.999Z,75.93
2024-02-17T21:24:10.069Z,71.13
2024-02-17T21:26:37.691Z,80.95
2024-02-17T21:29:05.416Z,73.95
2024-02-17T21:31:32.883Z,76.00
2024-02-17T21:34:00.705Z,71.97
2024-02-17T21:36:28.302Z,74.03
2024-02-17T21:38:56.553Z,70.32
2024-02-17T21:41:24.093Z,72.57
2024-02-17T21:43:51.982Z,70.53
2024-02-17T21:46:24.421Z,60.42
2024-02-17T21:48:54.430Z,60.47
2024-02-17T21:51:27.434Z,53.30
2024-02-17T21:53:54.986Z,30.83
2024-02-17T21:56:22.752Z,19.75
2024-02-17T21:58:50.698Z,11.05
2024-02-17T22:01:18.380Z,9.90
2024-02-17T22:03:46.284Z,10.77
2024-02-17T22:06:14.150Z,7.90
2024-02-17T22:08:41.916Z,8.05
2024-02-17T22:11:09.819Z,6.88
2024-02-17T22:13:37.548Z,5.88
2024-02-17T22:16:05.472Z,7.95
2024-02-17T22:18:33.272Z,5.45
2024-02-17T22:21:01.059Z,7.20
2024-02-17T22:23:28.763Z,7.05
2024-02-17T22:25:56.487Z,8.80
2024-02-17T22:28:24.011Z,9.43
2024-02-17T22:30:52.015Z,7.13
2024-02-17T22:33:19.800Z,6.43
2024-02-17T22:35:47.433Z,6.72
2024-02-17T22:38:14.910Z,5.78
2024-02-17T22:40:42.646Z,5.78
2024-02-17T22:43:10.166Z,7.47
2024-02-17T22:45:37.798Z,6.63
2024-02-17T22:48:05.640Z,6.13
2024-02-17T22:50:33.370Z,6.35
2024-02-17T22:53:01.041Z,6.37
2024-02-17T22:55:28.465Z,7.20
2024-02-17T22:57:56.184Z,5.78
2024-02-17T23:00:25.828Z,5.40
2024-02-17T23:02:53.528Z,5.13
2024-02-17T23:05:22.238Z,7.43
2024-02-17T23:07:50.761Z,6.17
2024-02-17T23:10:19.164Z,5.60
2024-02-17T23:12:46.859Z,5.50
2024-02-17T23:15:14.334Z,4.80
2024-02-17T23:17:42.109Z,6.17
2024-02-17T23:20:13.909Z,7.57
2024-02-17T23:22:42.056Z,4.70
2024-02-17T23:25:12.216Z,4.43
2024-02-17T23:27:41.396Z,5.30
2024-02-17T23:30:10.313Z,5.30
2024-02-17T23:32:38.825Z,5.07
2024-02-17T23:35:07.291Z,5.67
2024-02-17T23:37:34.918Z,5.93
2024-02-17T23:40:03.529Z,5.07
2024-02-17T23:42:31.417Z,7.67
2024-02-17T23:44:58.912Z,7.07
2024-02-17T23:47:27.769Z,6.00
2024-02-17T23:49:55.293Z,7.03
2024-02-17T23:52:23.295Z,7.67
2024-02-17T23:54:50.932Z,5.80
2024-02-17T23:57:18.807Z,6.30
2024-02-17T23:59:47.249Z,6.40
